createdAt,value
2022-12-05T00:00:55.710Z,4.13
2022-12-05T00:06:17.352Z,4.19
2022-12-05T00:11:39.043Z,4.16
2022-12-05T00:16:59.989Z,4.16
2022-12-05T00:22:20.744Z,4.14
2022-12-05T00:27:41.626Z,4.15
2022-12-05T00:33:02.491Z,4.14
2022-12-05T00:38:23.338Z,4.12
2022-12-05T00:43:44.725Z,4.11
2022-12-05T00:49:06.579Z,4.08
2022-12-05T00:54:27.247Z,4.09
2022-12-05T00:59:47.908Z,4.06
2022-12-05T01:05:08.729Z,4.08
2022-12-05T01:10:29.290Z,4.05
2022-12-05T01:15:50.546Z,4.05
2022-12-05T01:21:11.589Z,4.06
2022-12-05T01:26:32.115Z,4.07
2022-12-05T01:31:53.444Z,4.11
2022-12-05T01:37:14.200Z,4.11
2022-12-05T01:42:34.999Z,4.10
2022-12-05T01:47:55.667Z,4.10
2022-12-05T01:53:17.672Z,4.10
2022-12-05T01:58:40.232Z,4.08
2022-12-05T02:04:01.127Z,4.07
2022-12-05T02:09:22.537Z,4.07
2022-12-05T02:15:01.894Z,4.09
2022-12-05T02:20:31.656Z,4.10
2022-12-05T02:26:10.708Z,4.07
2022-12-05T02:31:31.496Z,4.08
2022-12-05T02:36:52.251Z,4.04
2022-12-05T02:42:22.497Z,4.04
2022-12-05T02:47:51.171Z,4.03
2022-12-05T02:53:14.445Z,4.00
2022-12-05T02:58:39.109Z,3.99
2022-12-05T03:04:02.162Z,4.03
2022-12-05T03:09:29.730Z,4.06
2022-12-05T03:14:54.572Z,4.12
2022-12-05T03:20:25.317Z,4.18
2022-12-05T03:25:57.665Z,4.18
2022-12-05T03:31:27.778Z,4.21
2022-12-05T03:36:50.209Z,4.15
2022-12-05T03:42:17.113Z,4.12
2022-12-05T03:47:57.681Z,4.14
2022-12-05T03:53:24.623Z,4.10
2022-12-05T03:58:54.186Z,4.08
2022-12-05T04:04:17.693Z,4.05
2022-12-05T04:09:45.048Z,4.00
2022-12-05T04:15:08.501Z,4.00
2022-12-05T04:20:47.596Z,4.01
2022-12-05T04:26:11.150Z,4.03
2022-12-05T04:31:34.168Z,4.07
2022-12-05T04:37:15.060Z,4.08
2022-12-05T04:42:37.112Z,4.18
2022-12-05T04:48:01.361Z,4.18
2022-12-05T04:53:23.646Z,4.23
2022-12-05T04:58:44.503Z,4.21
2022-12-05T05:04:13.900Z,4.19
2022-12-05T05:09:35.031Z,4.21
2022-12-05T05:14:55.430Z,4.20
2022-12-05T05:20:25.251Z,4.38
2022-12-05T05:25:45.948Z,4.32
2022-12-05T05:31:07.529Z,4.28
2022-12-05T05:36:28.236Z,4.23
2022-12-05T05:41:49.048Z,4.12
2022-12-05T05:47:09.947Z,4.22
2022-12-05T05:52:32.356Z,4.23
2022-12-05T05:57:52.904Z,4.40
2022-12-05T06:03:13.894Z,4.45
2022-12-05T06:08:36.138Z,4.48
2022-12-05T06:13:58.219Z,4.62
2022-12-05T06:19:18.771Z,4.46
2022-12-05T06:24:39.687Z,4.32
2022-12-05T06:30:00.967Z,4.17
2022-12-05T06:35:21.724Z,4.23
2022-12-05T06:40:42.982Z,4.34
2022-12-05T06:46:07.260Z,4.30
2022-12-05T06:51:27.862Z,4.36
2022-12-05T06:56:48.524Z,4.41
2022-12-05T07:02:11.501Z,4.31
2022-12-05T07:07:32.104Z,4.21
2022-12-05T07:12:52.744Z,4.39
2022-12-05T07:18:13.764Z,4.56
2022-12-05T07:23:34.376Z,4.66
2022-12-05T07:28:55.883Z,4.55
2022-12-05T07:34:16.599Z,4.77
2022-12-05T07:39:37.368Z,4.97
2022-12-05T07:44:58.294Z,5.03
2022-12-05T07:50:19.247Z,5.06
2022-12-05T07:55:40.023Z,5.02
2022-12-05T08:01:08.278Z,4.79
2022-12-05T08:06:30.353Z,4.64
2022-12-05T08:11:52.840Z,4.39
2022-12-05T08:17:13.613Z,4.36
2022-12-05T08:22:34.411Z,4.62
2022-12-05T08:27:55.172Z,4.56
2022-12-05T08:33:15.872Z,4.41
2022-12-05T08:38:36.987Z,4.32
2022-12-05T08:43:58.668Z,4.30
2022-12-05T08:49:19.386Z,4.38
2022-12-05T08:54:40.180Z,4.54
2022-12-05T09:00:00.631Z,4.64
2022-12-05T09:05:28.907Z,4.80
2022-12-05T09:10:50.156Z,4.69
2022-12-05T09:16:12.478Z,4.82
2022-12-05T09:21:33.385Z,4.79
2022-12-05T09:26:54.158Z,4.68
2022-12-05T09:32:14.868Z,4.53
2022-12-05T09:37:40.112Z,4.56
2022-12-05T09:43:19.299Z,4.43
2022-12-05T09:48:41.004Z,4.29
2022-12-05T09:54:02.968Z,4.24
2022-12-05T09:59:23.579Z,4.43
2022-12-05T10:05:00.321Z,4.48
2022-12-05T10:10:21.697Z,4.44
2022-12-05T10:15:56.822Z,4.46
2022-12-05T10:21:30.019Z,4.38
2022-12-05T10:26:59.011Z,5.25
2022-12-05T10:32:28.102Z,5.38
2022-12-05T10:37:50.869Z,5.24
2022-12-05T10:43:13.804Z,5.08
2022-12-05T10:48:36.692Z,4.94
2022-12-05T10:53:57.604Z,4.97
2022-12-05T10:59:25.754Z,4.96
2022-12-05T11:04:46.620Z,4.86
2022-12-05T11:10:28.484Z,5.18
2022-12-05T11:15:55.174Z,5.00
2022-12-05T11:21:19.550Z,5.02
2022-12-05T11:26:40.105Z,5.04
2022-12-05T11:32:01.237Z,4.92
2022-12-05T11:37:26.749Z,4.86
2022-12-05T11:43:07.708Z,4.80
2022-12-05T11:48:40.049Z,4.80
2022-12-05T11:54:00.769Z,4.84
2022-12-05T11:59:27.864Z,4.96
2022-12-05T12:04:55.974Z,5.05
2022-12-05T12:10:36.115Z,5.04
2022-12-05T12:16:10.674Z,4.95
2022-12-05T12:21:38.415Z,4.81
2022-12-05T12:27:25.895Z,5.00
2022-12-05T12:32:46.351Z,5.21
2022-12-05T12:38:06.865Z,5.24
2022-12-05T12:43:53.234Z,5.14
2022-12-05T12:49:40.047Z,5.25
2022-12-05T12:55:06.919Z,5.15
2022-12-05T13:00:37.048Z,5.40
2022-12-05T13:06:13.217Z,5.37
2022-12-05T13:11:37.027Z,5.31
2022-12-05T13:16:58.643Z,5.14
2022-12-05T13:22:21.038Z,5.23
2022-12-05T13:27:53.428Z,5.09
2022-12-05T13:33:25.621Z,5.21
2022-12-05T13:39:05.382Z,5.19
2022-12-05T13:44:29.224Z,5.18
2022-12-05T13:49:52.943Z,5.15
2022-12-05T13:55:36.294Z,5.21
2022-12-05T14:01:17.400Z,5.19
2022-12-05T14:06:38.423Z,5.06
2022-12-05T14:12:11.362Z,5.07
2022-12-05T14:17:44.950Z,5.28
2022-12-05T14:23:09.103Z,5.32
2022-12-05T14:28:30.046Z,5.28
2022-12-05T14:34:15.245Z,5.56
2022-12-05T14:39:39.167Z,5.81
2022-12-05T14:45:01.897Z,5.89
2022-12-05T14:50:42.496Z,5.96
2022-12-05T14:56:06.693Z,6.05
2022-12-05T15:01:30.097Z,5.82
2022-12-05T15:06:53.516Z,7.23
2022-12-05T15:12:23.504Z,8.57
2022-12-05T15:17:50.515Z,7.47
2022-12-05T15:23:30.358Z,6.77
2022-12-05T15:29:06.784Z,6.29
2022-12-05T15:34:36.755Z,5.94
2022-12-05T15:40:02.136Z,5.65
2022-12-05T15:45:27.127Z,5.52
2022-12-05T15:50:51.293Z,5.47
2022-12-05T15:56:23.829Z,5.33
2022-12-05T16:01:47.333Z,5.42
2022-12-05T16:07:09.817Z,5.38
2022-12-05T16:12:35.771Z,5.61
2022-12-05T16:17:57.547Z,5.75
2022-12-05T16:23:23.568Z,5.81
2022-12-05T16:28:56.187Z,5.71
2022-12-05T16:34:17.127Z,5.44
2022-12-05T16:39:37.736Z,5.13
2022-12-05T16:45:03.467Z,5.00
2022-12-05T16:50:35.075Z,5.12
2022-12-05T16:55:56.026Z,5.12
2022-12-05T17:01:18.304Z,5.11
2022-12-05T17:06:39.474Z,5.17
2022-12-05T17:12:02.941Z,5.10
2022-12-05T17:17:23.679Z,5.14
2022-12-05T17:22:44.300Z,5.29
2022-12-05T17:28:05.152Z,5.14
2022-12-05T17:33:25.738Z,5.15
2022-12-05T17:38:46.355Z,5.33
2022-12-05T17:44:07.965Z,5.04
2022-12-05T17:49:28.936Z,5.07
2022-12-05T17:54:49.857Z,6.02
2022-12-05T18:00:10.892Z,5.75
2022-12-05T18:05:31.669Z,5.82
2022-12-05T18:10:52.652Z,5.54
2022-12-05T18:16:13.757Z,5.23
2022-12-05T18:21:34.329Z,4.96
2022-12-05T18:26:56.172Z,4.81
2022-12-05T18:32:17.873Z,6.13
2022-12-05T18:37:39.534Z,6.20
2022-12-05T18:43:00.323Z,5.67
2022-12-05T18:48:38.720Z,5.30
2022-12-05T18:54:01.358Z,5.01
2022-12-05T18:59:22.467Z,4.97
2022-12-05T19:04:43.205Z,4.86
2022-12-05T19:10:04.255Z,4.89
2022-12-05T19:15:25.166Z,4.82
2022-12-05T19:20:49.685Z,4.82
2022-12-05T19:26:11.030Z,4.95
2022-12-05T19:31:32.129Z,5.11
2022-12-05T19:36:53.087Z,5.26
2022-12-05T19:42:13.617Z,5.26
2022-12-05T19:47:34.723Z,5.22
2022-12-05T19:52:55.615Z,5.22
2022-12-05T19:58:16.654Z,5.25
2022-12-05T20:03:39.056Z,5.21
2022-12-05T20:08:59.978Z,5.22
2022-12-05T20:14:22.097Z,5.62
2022-12-05T20:19:42.982Z,5.49
2022-12-05T20:25:04.230Z,5.45
2022-12-05T20:30:24.885Z,5.45
2022-12-05T20:35:45.785Z,5.52
2022-12-05T20:41:17.110Z,5.56
2022-12-05T20:46:38.097Z,5.44
2022-12-05T20:51:58.641Z,5.45
2022-12-05T20:57:20.193Z,5.41
2022-12-05T21:02:40.886Z,5.33
2022-12-05T21:08:01.752Z,5.38
2022-12-05T21:13:22.348Z,5.16
2022-12-05T21:18:43.465Z,4.99
2022-12-05T21:24:04.853Z,5.07
2022-12-05T21:29:25.584Z,5.13
2022-12-05T21:34:46.567Z,5.02
2022-12-05T21:40:08.105Z,4.97
2022-12-05T21:45:28.675Z,4.97
2022-12-05T21:50:49.687Z,5.00
2022-12-05T21:56:17.400Z,4.89
2022-12-05T22:01:38.564Z,4.96
2022-12-05T22:06:59.272Z,5.06
2022-12-05T22:12:20.213Z,5.03
2022-12-05T22:17:40.992Z,5.12
2022-12-05T22:23:01.400Z,5.16
2022-12-05T22:28:24.050Z,5.02
2022-12-05T22:33:45.196Z,4.93
2022-12-05T22:39:05.852Z,4.91
2022-12-05T22:44:26.551Z,4.86
2022-12-05T22:49:47.187Z,4.70
2022-12-05T22:55:08.337Z,4.67
2022-12-05T23:00:29.010Z,4.76
2022-12-05T23:05:50.010Z,4.90
2022-12-05T23:11:11.587Z,4.94
2022-12-05T23:16:32.823Z,4.90
2022-12-05T23:21:53.484Z,4.85
2022-12-05T23:27:16.206Z,4.76
2022-12-05T23:32:36.646Z,4.72
2022-12-05T23:37:57.501Z,4.77
2022-12-05T23:43:18.350Z,4.69
2022-12-05T23:48:39.741Z,4.57
2022-12-05T23:54:01.672Z,4.68
2022-12-05T23:59:22.389Z,4.52
